Time;durP1;ratioP1;P1;durP2;ratioP2;P2;SDS_P1;SDS_P2;PMS_P1;PMS_P2;Temp;Humidity;BMP_temperature;BMP_pressure;BME280_temperature;BME280_humidity;BME280_pressure;Samples;Min_cycle;Max_cycle;Signal;HPM_P1;HPM_P2
2022/12/16 00:01:14;;;;;;;184.10;63.30;;;;;;;-5.92;100.00;98888.00;99635;1370;22722;-36
2022/12/16 00:03:40;;;;;;;143.30;52.30;;;;;;;-5.89;100.00;98886.20;99596;1366;23103;-34
2022/12/16 00:06:07;;;;;;;133.80;42.00;;;;;;;-5.88;100.00;98888.36;99519;1351;22812;-37
2022/12/16 00:08:34;;;;;;;104.10;39.90;;;;;;;-5.83;100.00;98883.50;99665;1350;22713;-34
2022/12/16 00:11:00;;;;;;;85.80;31.00;;;;;;;-5.75;100.00;98877.02;99632;1349;22860;-31
2022/12/16 00:13:26;;;;;;;123.10;40.70;;;;;;;-5.72;100.00;98873.16;99542;1353;25344;-31
2022/12/16 00:15:51;;;;;;;121.00;37.40;;;;;;;-5.72;100.00;98860.80;99528;1370;23085;-34
2022/12/16 00:18:18;;;;;;;146.30;50.00;;;;;;;-5.62;100.00;98850.02;99566;1351;22718;-33
2022/12/16 00:20:45;;;;;;;140.30;45.10;;;;;;;-5.61;100.00;98854.23;99494;1349;22708;-33
2022/12/16 00:23:11;;;;;;;115.60;42.40;;;;;;;-5.67;100.00;98859.21;99495;1350;22852;-34
2022/12/16 00:25:37;;;;;;;149.70;45.50;;;;;;;-5.71;100.00;98859.62;99525;1365;24312;-31
2022/12/16 00:28:03;;;;;;;146.10;49.50;;;;;;;-5.72;100.00;98857.43;99365;1347;22732;-30
2022/12/16 00:30:28;;;;;;;130.30;42.80;;;;;;;-5.65;100.00;98851.51;99352;1353;25301;-30
2022/12/16 00:32:54;;;;;;;122.70;42.50;;;;;;;-5.65;100.00;98851.92;99549;1360;22591;-29
2022/12/16 00:35:19;;;;;;;136.80;42.50;;;;;;;-5.72;100.00;98841.97;99515;1365;22844;-34
2022/12/16 00:37:46;;;;;;;114.10;44.70;;;;;;;-5.73;100.00;98835.91;99570;1363;22844;-36
2022/12/16 00:40:12;;;;;;;140.20;42.30;;;;;;;-5.67;100.00;98823.08;99382;1353;23080;-29
2022/12/16 00:42:37;;;;;;;116.80;39.90;;;;;;;-5.75;100.00;98835.00;99566;1351;22870;-30
2022/12/16 00:45:04;;;;;;;125.50;41.80;;;;;;;-5.62;100.00;98835.34;99490;1350;24347;-36
2022/12/16 00:47:29;;;;;;;187.70;72.00;;;;;;;-5.66;100.00;98840.33;99627;1350;23096;-34
2022/12/16 00:49:54;;;;;;;122.80;43.80;;;;;;;-5.76;100.00;98844.64;99371;1370;22743;-34
2022/12/16 00:52:20;;;;;;;160.90;50.90;;;;;;;-5.68;100.00;98845.64;99333;1347;24376;-30
2022/12/16 00:54:46;;;;;;;93.40;37.60;;;;;;;-5.67;100.00;98849.10;99551;1360;22729;-29
2022/12/16 00:57:12;;;;;;;112.70;41.00;;;;;;;-5.64;100.00;98843.80;99481;1363;24919;-28
2022/12/16 00:59:37;;;;;;;120.20;45.20;;;;;;;-5.65;100.00;98837.77;99332;1353;23092;-34
2022/12/16 01:02:02;;;;;;;118.80;38.00;;;;;;;-5.65;100.00;98826.48;99296;1359;22600;-29
2022/12/16 01:04:28;;;;;;;150.10;56.60;;;;;;;-5.64;100.00;98813.69;99337;1360;22851;-29
2022/12/16 01:06:54;;;;;;;107.80;36.70;;;;;;;-5.65;100.00;98813.85;99574;1352;23271;-34
2022/12/16 01:09:20;;;;;;;270.30;76.50;;;;;;;-5.56;100.00;98818.33;99357;1370;24228;-30
2022/12/16 01:11:46;;;;;;;136.70;44.00;;;;;;;-5.62;100.00;98818.91;99609;1351;22851;-35
2022/12/16 01:14:11;;;;;;;133.30;45.50;;;;;;;-5.63;100.00;98819.48;99600;1369;22844;-36
2022/12/16 01:16:37;;;;;;;120.50;34.70;;;;;;;-5.57;100.00;98813.00;99460;1366;22821;-34
2022/12/16 01:19:02;;;;;;;127.00;41.20;;;;;;;-5.53;100.00;98811.29;99359;1353;24886;-34
2022/12/16 01:21:28;;;;;;;100.30;33.60;;;;;;;-5.54;100.00;98817.13;99480;1349;22599;-33
2022/12/16 01:23:54;;;;;;;147.90;44.00;;;;;;;-5.50;100.00;98811.45;99480;1369;22855;-29
2022/12/16 01:26:19;;;;;;;157.90;50.50;;;;;;;-5.56;100.00;98812.91;99438;1351;22962;-29
2022/12/16 01:28:46;;;;;;;93.40;36.10;;;;;;;-5.52;100.00;98804.95;99470;1350;24899;-33
2022/12/16 01:31:12;;;;;;;125.70;38.40;;;;;;;-5.48;100.00;98795.92;99581;1350;22756;-30
2022/12/16 01:33:37;;;;;;;133.10;43.30;;;;;;;-5.50;100.00;98798.02;99444;1370;22659;-34
2022/12/16 01:36:04;;;;;;;93.20;30.70;;;;;;;-5.51;100.00;98804.70;99454;1366;23057;-36
2022/12/16 01:38:30;;;;;;;108.40;33.80;;;;;;;-5.46;100.00;98806.11;99376;1353;22647;-33
2022/12/16 01:40:56;;;;;;;93.40;27.90;;;;;;;-5.46;100.00;98800.48;99636;1350;22728;-29
2022/12/16 01:43:24;;;;;;;101.90;29.80;;;;;;;-5.50;100.00;98795.22;99468;1353;22696;-39
2022/12/16 01:45:50;;;;;;;88.40;28.00;;;;;;;-5.53;100.00;98788.45;99353;1366;23106;-29
2022/12/16 01:48:34;;;;;;;92.40;33.30;;;;;;;-5.37;100.00;98773.84;99324;1360;23201;-29
2022/12/16 01:51:07;;;;;;;;;;;;;;;-5.36;100.00;98770.50;99315;1354;22573;-33
2022/12/16 01:53:33;;;;;;;103.20;33.20;;;;;;;-5.38;100.00;98773.39;99491;1359;22611;-30
2022/12/16 01:55:59;;;;;;;90.00;29.70;;;;;;;-5.36;100.00;98770.30;99151;1364;22614;-30
2022/12/16 01:58:26;;;;;;;68.30;22.50;;;;;;;-5.35;100.00;98768.15;99493;1356;23294;-29
2022/12/16 02:00:52;;;;;;;66.70;25.20;;;;;;;-5.33;100.00;98765.17;99504;1350;22760;-29
2022/12/16 02:03:18;;;;;;;75.20;26.10;;;;;;;-5.27;100.00;98759.48;99490;1357;24537;-30
2022/12/16 02:05:43;;;;;;;83.90;31.40;;;;;;;-5.35;100.00;98754.35;99529;1350;23196;-29
2022/12/16 02:08:13;;;;;;;67.10;25.50;;;;;;;-5.26;100.00;98750.73;99342;1353;22586;-30
2022/12/16 02:11:06;;;;;;;67.10;23.50;;;;;;;-5.16;100.00;98749.66;99542;1350;24262;-37
2022/12/16 02:13:54;;;;;;;68.30;25.70;;;;;;;-5.35;100.00;98741.10;99642;1350;22990;-35
2022/12/16 02:16:38;;;;;;;56.10;21.40;;;;;;;-5.25;100.00;98742.44;99427;1353;23070;-33
2022/12/16 02:19:27;;;;;;;69.90;22.80;;;;;;;-5.14;100.00;98728.21;99528;1350;23043;-30
2022/12/16 02:22:25;;;;;;;73.00;22.50;;;;;;;-5.08;100.00;98732.13;99502;1369;22782;-35
2022/12/16 02:25:04;;;;;;;60.40;21.10;;;;;;;-4.98;100.00;98728.08;99561;1350;24813;-34
2022/12/16 02:27:43;;;;;;;67.00;26.00;;;;;;;-5.00;100.00;98721.59;99583;1351;22733;-34
2022/12/16 02:30:33;;;;;;;60.20;24.80;;;;;;;-5.10;100.00;98717.94;99491;1350;22718;-34
2022/12/16 02:33:30;;;;;;;30.20;10.60;;;;;;;-4.97;100.00;98712.12;99326;1354;22882;-33
2022/12/16 02:36:03;;;;;;;52.70;24.80;;;;;;;-4.96;100.00;98712.92;99500;1350;22967;-32
2022/12/16 02:38:35;;;;;;;;;;;;;;;-4.92;100.00;98711.59;99616;1351;22707;-32
2022/12/16 02:41:07;;;;;;;64.30;20.40;;;;;;;-4.98;100.00;98708.86;99601;1350;25415;-35
2022/12/16 02:43:53;;;;;;;155.70;42.00;;;;;;;-4.95;100.00;98708.42;99498;1365;23070;-29
2022/12/16 02:46:21;;;;;;;89.40;27.10;;;;;;;-4.95;100.00;98708.44;99468;1351;23030;-30
2022/12/16 02:48:47;;;;;;;63.90;25.90;;;;;;;-5.02;100.00;98697.27;99518;1359;24334;-34
2022/12/16 02:51:12;;;;;;;45.50;13.60;;;;;;;-4.96;100.00;98695.06;99536;1365;25014;-29
2022/12/16 02:53:38;;;;;;;57.20;22.00;;;;;;;-4.98;100.00;98686.15;99539;1368;24897;-34
2022/12/16 02:56:20;;;;;;;66.90;22.90;;;;;;;-5.06;100.00;98690.40;99594;1370;22851;-28
2022/12/16 02:58:57;;;;;;;66.00;20.60;;;;;;;-4.99;100.00;98695.98;99537;1350;23261;-29
2022/12/16 03:01:28;;;;;;;29.80;13.80;;;;;;;-4.96;100.00;98691.59;99614;1354;25429;-31
2022/12/16 03:03:57;;;;;;;40.00;16.10;;;;;;;-5.03;100.00;98683.44;99535;1353;24496;-34
2022/12/16 03:06:23;;;;;;;67.40;25.50;;;;;;;-5.03;100.00;98683.79;99537;1349;22644;-31
2022/12/16 03:08:51;;;;;;;62.50;24.20;;;;;;;-5.14;100.00;98684.95;99629;1351;22595;-29
2022/12/16 03:11:16;;;;;;;65.20;19.00;;;;;;;-5.14;100.00;98682.98;99392;1364;25460;-36
2022/12/16 03:13:45;;;;;;;62.40;21.50;;;;;;;-5.15;100.00;98680.13;99297;1357;22714;-34
2022/12/16 03:16:11;;;;;;;59.80;19.20;;;;;;;-5.05;100.00;98675.84;99575;1350;23070;-36
2022/12/16 03:18:38;;;;;;;74.40;23.20;;;;;;;-5.04;100.00;98674.41;99599;1352;22844;-33
2022/12/16 03:21:06;;;;;;;54.90;23.40;;;;;;;-5.02;100.00;98673.58;99563;1350;25561;-29
2022/12/16 03:23:42;;;;;;;46.90;16.90;;;;;;;-5.05;100.00;98673.05;99543;1350;22595;-30
2022/12/16 03:26:10;;;;;;;67.60;24.10;;;;;;;-5.09;100.00;98670.05;99567;1347;22882;-34
2022/12/16 03:28:43;;;;;;;42.40;17.80;;;;;;;-5.06;100.00;98663.70;99522;1352;23085;-33
2022/12/16 03:31:32;;;;;;;52.70;18.70;;;;;;;-4.92;100.00;98656.73;99588;1350;24297;-36
2022/12/16 03:34:12;;;;;;;55.70;20.80;;;;;;;-4.96;100.00;98649.52;99536;1350;22838;-35
2022/12/16 03:36:38;;;;;;;52.30;18.80;;;;;;;-5.03;100.00;98650.22;99352;1360;24228;-30
2022/12/16 03:39:04;;;;;;;55.60;21.80;;;;;;;-4.99;100.00;98649.23;99425;1353;24740;-29
2022/12/16 03:41:30;;;;;;;55.00;18.50;;;;;;;-4.84;100.00;98645.95;99607;1370;22660;-34
2022/12/16 03:43:56;;;;;;;65.30;22.20;;;;;;;-4.92;100.00;98647.66;99586;1350;22723;-30
2022/12/16 03:46:21;;;;;;;42.70;15.60;;;;;;;-4.84;100.00;98652.14;99465;1353;25378;-30
2022/12/16 03:48:48;;;;;;;55.50;20.20;;;;;;;-4.85;100.00;98649.23;99302;1354;22718;-30
2022/12/16 03:51:14;;;;;;;53.10;19.20;;;;;;;-4.88;100.00;98649.77;99560;1368;23087;-32
2022/12/16 03:53:40;;;;;;;69.10;24.40;;;;;;;-5.00;100.00;98649.98;99587;1350;22815;-34
2022/12/16 03:56:07;;;;;;;50.00;19.30;;;;;;;-4.85;100.00;98653.21;99535;1370;22729;-30
2022/12/16 03:58:34;;;;;;;66.70;25.00;;;;;;;-4.87;100.00;98656.48;99367;1353;24486;-31
2022/12/16 04:01:00;;;;;;;60.20;21.60;;;;;;;-4.76;100.00;98661.61;99599;1351;23006;-35
2022/12/16 04:03:26;;;;;;;57.00;20.70;;;;;;;-4.75;100.00;98662.40;99595;1351;23548;-30
2022/12/16 04:05:51;;;;;;;48.40;18.90;;;;;;;-4.93;100.00;98657.45;99493;1369;22841;-35
2022/12/16 04:08:17;;;;;;;58.30;20.80;;;;;;;-4.90;100.00;98657.10;99091;1347;23070;-35
2022/12/16 04:25:42;;;;;;;48.00;17.30;;;;;;;-4.78;100.00;98655.35;99481;1360;23192;-30
2022/12/16 04:28:08;;;;;;;57.40;19.00;;;;;;;-4.82;100.00;98660.85;99561;1369;22595;-29
2022/12/16 04:30:33;;;;;;;63.00;19.30;;;;;;;-4.67;100.00;98665.66;99523;1361;26550;-29
